Tignish, Canada
Current Conditions -  °F | °C
As of 4:00 AM on Wednesday 22 Oct 2014 (Local Time) from CYYG Reporting Station
Broken Clouds Broken Clouds  
Wind Chill: 35°   Ceiling: 17000
Heat Index: 39°   Visibility: 15mi
Dew Point: 36°   Wind: 6mph
Humidity: 87%   Direction: 30°NNE
Pressure: 30.34"   Gusts: NA
Location:  46.95°N, 64.03°W
Report Text: CYYG 220700Z 03005KT 15SM SCT120 BKN170 04/02 A3034 RMK AC3AC3 SLP275
Loading
Personal Weather Stations






























Interactive Weather Map
Tropical Storm Tracking
New forecast layout! Learn more

10-Day Weather Forecast

Advertisements
Track Severe Weather on mobile